createdAt,value
2023-05-14T00:00:30.094Z,12.95
2023-05-14T00:02:56.648Z,12.92
2023-05-14T00:05:23.326Z,12.90
2023-05-14T00:07:49.763Z,12.89
2023-05-14T00:10:17.597Z,12.85
2023-05-14T00:12:43.981Z,12.81
2023-05-14T00:15:10.515Z,12.77
2023-05-14T00:17:37.439Z,12.79
2023-05-14T00:20:07.187Z,12.75
2023-05-14T00:22:34.485Z,12.73
2023-05-14T00:25:00.963Z,12.72
2023-05-14T00:27:27.553Z,12.67
2023-05-14T00:29:54.020Z,12.62
2023-05-14T00:32:20.461Z,12.57
2023-05-14T00:34:46.864Z,12.54
2023-05-14T00:37:13.320Z,12.56
2023-05-14T00:39:39.742Z,12.54
2023-05-14T00:42:06.716Z,12.52
2023-05-14T00:44:33.176Z,12.50
2023-05-14T00:47:00.354Z,12.47
2023-05-14T00:49:28.595Z,12.45
2023-05-14T00:51:55.932Z,12.46
2023-05-14T00:54:22.793Z,12.44
2023-05-14T00:56:49.271Z,12.39
2023-05-14T00:59:15.666Z,12.36
2023-05-14T01:01:42.712Z,12.30
2023-05-14T01:04:11.668Z,12.28
2023-05-14T01:07:07.078Z,12.26
2023-05-14T01:09:44.834Z,12.24
2023-05-14T01:12:26.015Z,12.22
2023-05-14T01:15:06.534Z,12.19
2023-05-14T01:17:35.870Z,12.15
2023-05-14T01:20:02.454Z,12.10
2023-05-14T01:22:28.824Z,12.06
2023-05-14T01:24:55.806Z,12.02
2023-05-14T01:27:31.878Z,12.00
2023-05-14T01:30:23.059Z,11.97
2023-05-14T01:32:54.398Z,11.94
2023-05-14T01:35:25.261Z,11.93
2023-05-14T01:37:54.904Z,11.91
2023-05-14T01:40:22.017Z,11.87
2023-05-14T01:42:51.821Z,11.82
2023-05-14T01:45:21.131Z,11.78
2023-05-14T01:47:48.078Z,11.74
2023-05-14T01:50:14.586Z,11.71
2023-05-14T01:52:41.081Z,11.69
2023-05-14T01:55:08.020Z,11.65
2023-05-14T01:57:34.459Z,11.60
2023-05-14T02:00:00.991Z,11.57
2023-05-14T02:02:27.480Z,11.54
2023-05-14T02:04:53.973Z,11.53
2023-05-14T02:07:20.662Z,11.51
2023-05-14T02:09:47.112Z,11.50
2023-05-14T02:12:13.559Z,11.49
2023-05-14T02:14:40.012Z,11.49
2023-05-14T02:17:06.486Z,11.48
2023-05-14T02:19:32.935Z,11.46
2023-05-14T02:22:00.310Z,11.44
2023-05-14T02:24:27.165Z,11.43
2023-05-14T02:26:53.707Z,11.44
2023-05-14T02:29:20.451Z,11.41
2023-05-14T02:31:46.864Z,11.38
2023-05-14T02:34:13.286Z,11.37
2023-05-14T02:36:40.075Z,11.36
2023-05-14T02:39:06.629Z,11.34
2023-05-14T02:41:33.128Z,11.30
2023-05-14T02:43:59.650Z,11.29
2023-05-14T02:46:26.142Z,11.25
2023-05-14T02:48:52.628Z,11.24
2023-05-14T02:51:20.301Z,11.23
2023-05-14T02:53:46.858Z,11.21
2023-05-14T02:56:13.261Z,11.20
2023-05-14T02:58:39.706Z,11.20
2023-05-14T03:01:06.178Z,11.19
2023-05-14T03:03:33.783Z,11.18
2023-05-14T03:06:00.792Z,11.15
2023-05-14T03:08:27.207Z,11.14
2023-05-14T03:10:53.664Z,11.08
2023-05-14T03:13:20.718Z,11.07
2023-05-14T03:15:47.403Z,11.06
2023-05-14T03:18:14.319Z,11.07
2023-05-14T03:20:41.520Z,11.02
2023-05-14T03:23:08.026Z,11.01
2023-05-14T03:25:34.436Z,10.99
2023-05-14T03:28:00.975Z,10.96
2023-05-14T03:30:27.563Z,10.94
2023-05-14T03:32:54.023Z,10.93
2023-05-14T03:35:20.494Z,10.92
2023-05-14T03:37:46.901Z,10.91
2023-05-14T03:40:13.275Z,10.90
2023-05-14T03:42:39.780Z,10.90
2023-05-14T03:45:07.075Z,10.90
2023-05-14T03:47:33.547Z,10.91
2023-05-14T03:50:00.291Z,10.92
2023-05-14T03:52:26.723Z,10.92
2023-05-14T03:54:53.174Z,10.93
2023-05-14T03:57:21.257Z,10.95
2023-05-14T03:59:48.017Z,10.93
2023-05-14T04:02:14.491Z,10.92
2023-05-14T04:04:42.266Z,10.92
2023-05-14T04:07:08.969Z,10.94
2023-05-14T04:09:35.410Z,10.94
2023-05-14T04:12:01.873Z,10.93
2023-05-14T04:14:28.245Z,10.92
2023-05-14T04:16:54.713Z,10.91
2023-05-14T04:19:21.147Z,10.90
2023-05-14T04:21:47.564Z,10.95
2023-05-14T04:24:13.977Z,11.00
2023-05-14T04:26:40.419Z,11.00
2023-05-14T04:29:06.783Z,11.00
2023-05-14T04:31:33.206Z,11.02
2023-05-14T04:33:59.664Z,11.05
2023-05-14T04:36:26.328Z,11.07
2023-05-14T04:38:52.816Z,11.11
2023-05-14T04:41:22.203Z,11.17
2023-05-14T04:43:50.273Z,11.19
2023-05-14T04:46:16.891Z,11.24
2023-05-14T04:48:43.419Z,11.26
2023-05-14T04:51:09.925Z,11.33
2023-05-14T04:53:36.295Z,11.39
2023-05-14T04:56:02.923Z,11.45
2023-05-14T04:58:33.531Z,11.50
2023-05-14T05:01:02.157Z,11.54
2023-05-14T05:03:28.860Z,11.60
2023-05-14T05:05:55.463Z,11.64
2023-05-14T05:08:21.883Z,11.68
2023-05-14T05:10:48.322Z,11.75
2023-05-14T05:13:16.959Z,11.79
2023-05-14T05:15:43.760Z,11.83
2023-05-14T05:18:10.323Z,11.84
2023-05-14T05:20:36.687Z,11.85
2023-05-14T05:23:03.077Z,11.90
2023-05-14T05:25:29.485Z,11.91
2023-05-14T05:27:56.063Z,11.92
2023-05-14T05:30:22.754Z,11.97
2023-05-14T05:32:49.455Z,11.99
2023-05-14T05:35:15.933Z,12.08
2023-05-14T05:37:42.884Z,12.14
2023-05-14T05:40:10.242Z,12.19
2023-05-14T05:42:36.627Z,12.17
2023-05-14T05:45:03.277Z,12.13
2023-05-14T05:47:30.176Z,12.13
2023-05-14T05:49:56.930Z,12.19
2023-05-14T05:52:23.426Z,12.19
2023-05-14T05:54:49.891Z,12.23
2023-05-14T05:57:16.370Z,12.25
2023-05-14T05:59:43.045Z,12.21
2023-05-14T06:02:09.511Z,12.19
2023-05-14T06:04:35.924Z,12.19
2023-05-14T06:07:02.439Z,12.22
2023-05-14T06:09:28.797Z,12.23
2023-05-14T06:11:55.264Z,12.27
2023-05-14T06:14:21.613Z,12.30
2023-05-14T06:16:48.116Z,12.48
2023-05-14T06:19:14.675Z,12.61
2023-05-14T06:21:41.156Z,12.67
2023-05-14T06:24:07.746Z,12.75
2023-05-14T06:26:34.231Z,12.86
2023-05-14T06:29:01.014Z,12.93
2023-05-14T06:31:27.515Z,12.99
2023-05-14T06:33:53.959Z,13.12
2023-05-14T06:36:20.427Z,13.26
2023-05-14T06:38:46.782Z,13.48
2023-05-14T06:41:13.188Z,13.56
2023-05-14T06:43:39.702Z,13.52
2023-05-14T06:46:06.420Z,13.62
2023-05-14T06:48:32.868Z,13.74
2023-05-14T06:50:59.288Z,13.86
2023-05-14T06:53:25.668Z,14.07
2023-05-14T06:55:52.096Z,14.18
2023-05-14T06:58:18.514Z,14.19
2023-05-14T07:00:45.007Z,14.31
2023-05-14T07:03:11.508Z,14.32
2023-05-14T07:05:38.192Z,14.37
2023-05-14T07:08:04.838Z,14.51
2023-05-14T07:10:31.634Z,14.74
2023-05-14T07:12:58.203Z,14.96
2023-05-14T07:15:24.610Z,15.09
2023-05-14T07:17:51.149Z,15.15
2023-05-14T07:20:17.551Z,15.10
2023-05-14T07:22:43.943Z,15.10
2023-05-14T07:25:10.516Z,15.26
2023-05-14T07:27:37.027Z,15.39
2023-05-14T07:30:04.037Z,15.50
2023-05-14T07:32:30.643Z,15.38
2023-05-14T07:34:57.237Z,15.52
2023-05-14T07:37:25.879Z,15.68
2023-05-14T07:39:53.003Z,15.77
2023-05-14T07:42:31.675Z,15.82
2023-05-14T07:45:02.132Z,15.89
2023-05-14T07:47:29.021Z,15.99
2023-05-14T07:49:56.549Z,16.11
2023-05-14T07:52:23.463Z,16.25
2023-05-14T07:54:51.224Z,16.38
2023-05-14T07:57:18.466Z,16.46
2023-05-14T07:59:44.802Z,16.51
2023-05-14T08:02:12.774Z,16.60
2023-05-14T08:04:39.676Z,16.67
2023-05-14T08:07:08.031Z,16.74
2023-05-14T08:09:34.653Z,16.78
2023-05-14T08:12:01.428Z,16.83
2023-05-14T08:14:28.687Z,16.70
2023-05-14T08:16:55.216Z,16.65
2023-05-14T08:19:21.743Z,16.58
2023-05-14T08:21:48.189Z,16.77
2023-05-14T08:24:14.991Z,17.07
2023-05-14T08:26:41.845Z,17.26
2023-05-14T08:29:10.494Z,17.54
2023-05-14T08:31:37.388Z,17.62
2023-05-14T08:34:03.808Z,17.70
2023-05-14T08:36:30.282Z,17.79
2023-05-14T08:38:56.726Z,17.94
2023-05-14T08:41:23.427Z,18.10
2023-05-14T08:44:11.546Z,18.14
2023-05-14T08:46:39.137Z,18.21
2023-05-14T08:49:33.454Z,18.29
2023-05-14T08:52:01.618Z,18.31
2023-05-14T08:54:28.790Z,18.36
2023-05-14T08:56:55.516Z,18.47
2023-05-14T08:59:21.928Z,18.51
2023-05-14T09:01:51.710Z,18.51
2023-05-14T09:04:23.837Z,18.58
2023-05-14T09:06:53.586Z,18.49
2023-05-14T09:09:23.036Z,18.58
2023-05-14T09:11:53.253Z,18.74
2023-05-14T09:14:20.657Z,18.77
2023-05-14T09:16:48.875Z,18.87
2023-05-14T09:19:17.939Z,18.85
2023-05-14T09:21:49.450Z,18.85
2023-05-14T09:24:23.930Z,19.03
2023-05-14T09:26:51.703Z,19.11
2023-05-14T09:29:18.548Z,19.21
2023-05-14T09:31:45.242Z,19.37
2023-05-14T09:34:12.036Z,19.27
2023-05-14T09:36:38.536Z,19.30
2023-05-14T09:39:04.986Z,19.27
2023-05-14T09:41:31.407Z,19.42
2023-05-14T09:43:57.912Z,19.49
2023-05-14T09:46:27.236Z,19.52
2023-05-14T09:48:56.215Z,19.64
2023-05-14T09:51:22.799Z,19.71
2023-05-14T09:53:52.470Z,19.84
2023-05-14T09:56:18.939Z,19.99
2023-05-14T09:58:45.390Z,20.09
2023-05-14T10:01:12.468Z,20.07
2023-05-14T10:03:39.287Z,20.20
2023-05-14T10:06:06.740Z,20.37
2023-05-14T10:08:35.181Z,20.42
2023-05-14T10:11:13.145Z,20.49
2023-05-14T10:13:46.418Z,20.55
2023-05-14T10:16:26.920Z,20.50
2023-05-14T10:19:00.704Z,20.69
2023-05-14T10:21:31.773Z,20.82
2023-05-14T10:23:58.521Z,20.78
2023-05-14T10:26:25.394Z,20.94
2023-05-14T10:28:51.898Z,21.04
2023-05-14T10:31:18.338Z,21.22
2023-05-14T10:33:50.371Z,21.34
2023-05-14T10:36:20.736Z,21.28
2023-05-14T10:38:47.204Z,21.33
2023-05-14T10:41:17.647Z,21.46
2023-05-14T10:43:44.567Z,21.42
2023-05-14T10:46:13.612Z,21.57
2023-05-14T10:48:43.003Z,21.72
2023-05-14T10:51:11.111Z,21.97
2023-05-14T10:53:40.342Z,21.92
2023-05-14T10:56:11.604Z,21.96
2023-05-14T10:58:39.257Z,22.03
2023-05-14T11:01:07.312Z,22.08
2023-05-14T11:03:43.125Z,22.00
2023-05-14T11:06:11.794Z,22.00
2023-05-14T11:08:38.462Z,22.33
2023-05-14T11:11:05.989Z,22.50
2023-05-14T11:13:34.405Z,22.73
2023-05-14T11:16:08.725Z,22.91
2023-05-14T11:18:42.125Z,22.96
2023-05-14T11:21:08.617Z,23.05
2023-05-14T11:23:35.042Z,23.21
2023-05-14T11:26:01.604Z,23.28
2023-05-14T11:28:28.060Z,23.35
2023-05-14T11:30:54.577Z,23.28
2023-05-14T11:33:21.271Z,23.34
2023-05-14T11:35:48.427Z,23.43
2023-05-14T11:38:19.505Z,23.44
2023-05-14T11:40:55.036Z,23.46
2023-05-14T11:43:24.963Z,23.45
2023-05-14T11:45:52.682Z,23.45
2023-05-14T11:48:20.440Z,23.41
2023-05-14T11:50:51.875Z,23.40
2023-05-14T11:53:29.699Z,23.45
2023-05-14T11:55:57.945Z,23.41
2023-05-14T11:58:25.244Z,23.40
2023-05-14T12:00:53.246Z,23.49
2023-05-14T12:03:26.029Z,23.55
2023-05-14T12:06:00.661Z,23.77
2023-05-14T12:08:31.558Z,23.98
2023-05-14T12:10:59.271Z,24.21
2023-05-14T12:13:30.740Z,24.28
2023-05-14T12:15:59.485Z,24.10
2023-05-14T12:18:27.634Z,24.25
2023-05-14T12:20:54.671Z,24.16
2023-05-14T12:23:29.291Z,24.20
2023-05-14T12:26:01.006Z,24.08
2023-05-14T12:28:28.618Z,24.23
2023-05-14T12:30:59.190Z,24.29
2023-05-14T12:33:29.152Z,24.41
2023-05-14T12:36:09.906Z,24.41
2023-05-14T12:38:46.607Z,24.47
2023-05-14T12:41:13.066Z,24.41
2023-05-14T12:43:43.495Z,24.44
2023-05-14T12:46:10.735Z,24.34
2023-05-14T12:48:37.092Z,24.35
2023-05-14T12:51:03.776Z,24.37
2023-05-14T12:53:30.233Z,24.48
2023-05-14T12:55:56.632Z,24.36
2023-05-14T12:58:23.055Z,24.46
2023-05-14T13:00:49.492Z,24.48
2023-05-14T13:03:16.089Z,24.46
2023-05-14T13:05:42.561Z,24.47
2023-05-14T13:08:09.606Z,24.58
2023-05-14T13:10:36.182Z,24.53
2023-05-14T13:13:02.600Z,24.44
2023-05-14T13:15:29.211Z,24.36
2023-05-14T13:17:55.786Z,24.22
2023-05-14T13:20:23.593Z,24.16
2023-05-14T13:22:50.042Z,24.24
2023-05-14T13:25:16.510Z,24.16
2023-05-14T13:27:43.007Z,24.27
2023-05-14T13:30:10.275Z,24.19
2023-05-14T13:32:36.695Z,24.19
2023-05-14T13:35:03.236Z,24.33
2023-05-14T13:37:29.737Z,24.41
2023-05-14T13:39:56.174Z,24.43
2023-05-14T13:42:23.557Z,24.48
2023-05-14T13:44:50.027Z,24.58
2023-05-14T13:47:16.480Z,24.54
2023-05-14T13:49:43.307Z,24.49
2023-05-14T13:52:09.733Z,24.64
2023-05-14T13:54:36.080Z,24.65
2023-05-14T13:57:02.553Z,24.56
2023-05-14T13:59:28.923Z,24.52
2023-05-14T14:01:55.421Z,24.48
2023-05-14T14:04:22.184Z,24.54
2023-05-14T14:06:48.979Z,24.57
2023-05-14T14:09:15.476Z,24.65
2023-05-14T14:11:41.920Z,24.63
2023-05-14T14:14:08.350Z,24.53
2023-05-14T14:16:34.856Z,24.41
2023-05-14T14:19:01.290Z,24.34
2023-05-14T14:21:27.704Z,24.34
2023-05-14T14:23:54.211Z,24.36
2023-05-14T14:26:21.298Z,24.43
2023-05-14T14:28:47.905Z,24.38
2023-05-14T14:31:14.413Z,24.32
2023-05-14T14:33:41.044Z,24.17
2023-05-14T14:36:07.630Z,24.10
2023-05-14T14:38:34.048Z,24.04
2023-05-14T14:41:03.094Z,24.14
2023-05-14T14:43:29.605Z,24.24
2023-05-14T14:45:56.062Z,24.21
2023-05-14T14:48:31.700Z,24.28
2023-05-14T14:50:58.585Z,24.39
2023-05-14T14:53:25.382Z,24.29
2023-05-14T14:55:52.022Z,24.28
2023-05-14T14:58:19.419Z,24.32
2023-05-14T15:00:46.244Z,24.29
2023-05-14T15:03:14.833Z,24.29
2023-05-14T15:05:41.514Z,24.37
2023-05-14T15:08:07.961Z,24.19
2023-05-14T15:10:37.856Z,24.06
2023-05-14T15:13:05.850Z,23.88
2023-05-14T15:15:33.524Z,23.93
2023-05-14T15:18:00.003Z,23.72
2023-05-14T15:20:26.796Z,23.63
2023-05-14T15:22:53.783Z,23.71
2023-05-14T15:25:20.899Z,23.78
2023-05-14T15:27:47.569Z,23.89
2023-05-14T15:30:14.903Z,23.98
2023-05-14T15:32:41.978Z,23.95
2023-05-14T15:35:08.906Z,23.84
2023-05-14T15:37:41.259Z,23.72
2023-05-14T15:40:08.997Z,23.71
2023-05-14T15:42:37.039Z,23.64
2023-05-14T15:45:03.754Z,23.55
2023-05-14T15:47:30.332Z,23.37
2023-05-14T15:49:56.853Z,23.42
2023-05-14T15:52:23.348Z,23.45
2023-05-14T15:54:50.095Z,23.32
2023-05-14T15:57:17.907Z,23.22
2023-05-14T15:59:46.981Z,23.16
2023-05-14T16:02:14.566Z,23.17
2023-05-14T16:04:41.006Z,23.06
2023-05-14T16:07:12.195Z,22.95
2023-05-14T16:09:39.448Z,22.98
2023-05-14T16:12:06.901Z,22.95
2023-05-14T16:14:34.782Z,22.92
2023-05-14T16:17:02.059Z,22.95
2023-05-14T16:19:28.619Z,22.78
2023-05-14T16:21:55.080Z,22.70
2023-05-14T16:24:21.530Z,22.69
2023-05-14T16:26:48.011Z,22.62
2023-05-14T16:29:14.363Z,22.60
2023-05-14T16:31:40.809Z,22.41
2023-05-14T16:34:07.248Z,22.22
2023-05-14T16:36:34.767Z,22.14
2023-05-14T16:41:30.803Z,22.05
2023-05-14T16:43:57.257Z,22.01
2023-05-14T16:46:23.816Z,21.93
2023-05-14T16:48:50.833Z,21.78
2023-05-14T16:51:17.429Z,21.73
2023-05-14T16:53:44.029Z,21.75
2023-05-14T16:56:13.279Z,21.72
2023-05-14T16:58:39.650Z,21.66
2023-05-14T17:01:09.351Z,21.61
2023-05-14T17:03:36.089Z,21.36
2023-05-14T17:06:02.663Z,21.16
2023-05-14T17:08:33.631Z,21.04
2023-05-14T17:11:00.222Z,20.89
2023-05-14T17:13:26.655Z,20.72
2023-05-14T17:15:53.189Z,20.77
2023-05-14T17:18:19.706Z,20.74
2023-05-14T17:20:46.322Z,20.63
2023-05-14T17:23:13.045Z,20.60
2023-05-14T17:25:39.778Z,20.47
2023-05-14T17:28:06.559Z,20.36
2023-05-14T17:30:33.075Z,20.24
2023-05-14T17:32:59.844Z,20.07
2023-05-14T17:35:26.321Z,19.97
2023-05-14T17:37:53.361Z,19.84
2023-05-14T17:40:19.905Z,19.71
2023-05-14T17:42:46.537Z,19.64
2023-05-14T17:45:14.341Z,19.62
2023-05-14T17:47:40.996Z,19.55
2023-05-14T17:50:07.999Z,19.42
2023-05-14T17:52:34.406Z,19.38
2023-05-14T17:55:01.004Z,19.29
2023-05-14T17:57:27.574Z,19.27
2023-05-14T17:59:54.090Z,19.08
2023-05-14T18:02:20.603Z,19.03
2023-05-14T18:04:47.044Z,18.93
2023-05-14T18:07:13.605Z,18.86
2023-05-14T18:09:39.985Z,18.80
2023-05-14T18:12:06.941Z,18.63
2023-05-14T18:14:33.312Z,18.52
2023-05-14T18:16:59.948Z,18.42
2023-05-14T18:19:26.568Z,18.37
2023-05-14T18:21:55.323Z,18.27
2023-05-14T18:24:22.149Z,18.18
2023-05-14T18:26:49.479Z,18.11
2023-05-14T18:29:15.937Z,18.08
2023-05-14T18:31:42.300Z,17.92
2023-05-14T18:34:08.754Z,17.83
2023-05-14T18:36:35.450Z,17.72
2023-05-14T18:39:01.881Z,17.62
2023-05-14T18:41:28.317Z,17.54
2023-05-14T18:43:54.898Z,17.41
2023-05-14T18:46:22.652Z,17.35
2023-05-14T18:48:50.073Z,17.24
2023-05-14T18:51:16.671Z,17.12
2023-05-14T18:53:43.064Z,17.02
2023-05-14T18:56:09.591Z,16.93
2023-05-14T18:58:36.073Z,16.96
2023-05-14T19:01:02.516Z,16.91
2023-05-14T19:03:29.185Z,16.89
2023-05-14T19:05:55.772Z,16.93
2023-05-14T19:08:22.216Z,16.85
2023-05-14T19:10:48.775Z,16.63
2023-05-14T19:13:18.069Z,16.51
2023-05-14T19:15:44.628Z,16.34
2023-05-14T19:18:12.925Z,16.24
2023-05-14T19:20:39.550Z,16.23
2023-05-14T19:23:06.131Z,16.11
2023-05-14T19:25:33.614Z,15.97
2023-05-14T19:28:02.191Z,15.84
2023-05-14T19:30:28.556Z,15.71
2023-05-14T19:32:55.210Z,15.56
2023-05-14T19:35:21.787Z,15.45
2023-05-14T19:37:48.291Z,15.39
2023-05-14T19:40:14.759Z,15.30
2023-05-14T19:42:41.433Z,15.27
2023-05-14T19:45:08.374Z,15.27
2023-05-14T19:47:34.874Z,15.14
2023-05-14T19:50:01.417Z,15.08
2023-05-14T19:52:27.853Z,15.07
2023-05-14T19:54:54.435Z,15.03
2023-05-14T19:57:20.842Z,14.88
2023-05-14T19:59:47.236Z,14.82
2023-05-14T20:02:18.192Z,14.72
2023-05-14T20:04:45.917Z,14.69
2023-05-14T20:07:15.497Z,14.66
2023-05-14T20:09:42.002Z,14.71
2023-05-14T20:12:09.041Z,14.73
2023-05-14T20:14:35.830Z,14.63
2023-05-14T20:17:03.203Z,14.49
2023-05-14T20:19:29.625Z,14.41
2023-05-14T20:21:56.399Z,14.38
2023-05-14T20:24:22.860Z,14.33
2023-05-14T20:26:49.434Z,14.35
2023-05-14T20:29:15.934Z,14.32
2023-05-14T20:31:42.314Z,14.34
2023-05-14T20:34:08.782Z,14.33
2023-05-14T20:36:35.854Z,14.25
2023-05-14T20:39:02.272Z,14.21
2023-05-14T20:41:28.696Z,14.15
2023-05-14T20:43:55.036Z,14.13
2023-05-14T20:46:21.604Z,14.10
2023-05-14T20:48:48.648Z,14.02
2023-05-14T20:51:15.011Z,13.93
2023-05-14T20:53:41.668Z,13.87
2023-05-14T20:56:08.224Z,13.91
2023-05-14T20:58:35.581Z,13.92
2023-05-14T21:01:02.137Z,13.92
2023-05-14T21:03:28.705Z,13.91
2023-05-14T21:05:56.746Z,13.87
2023-05-14T21:08:23.216Z,13.88
2023-05-14T21:10:49.629Z,13.84
2023-05-14T21:13:15.976Z,13.81
2023-05-14T21:15:42.487Z,13.80
2023-05-14T21:18:08.997Z,13.78
2023-05-14T21:20:35.444Z,13.73
2023-05-14T21:23:01.794Z,13.68
2023-05-14T21:25:28.451Z,13.64
2023-05-14T21:27:54.920Z,13.63
2023-05-14T21:30:21.631Z,13.57
2023-05-14T21:32:48.024Z,13.51
2023-05-14T21:35:14.510Z,13.48
2023-05-14T21:37:41.052Z,13.47
2023-05-14T21:40:14.936Z,13.37
2023-05-14T21:42:41.351Z,13.32
2023-05-14T21:45:08.236Z,13.30
2023-05-14T21:47:34.884Z,13.28
2023-05-14T21:50:01.347Z,13.26
2023-05-14T21:52:27.746Z,13.24
2023-05-14T21:54:54.156Z,13.21
2023-05-14T21:57:21.686Z,13.19
2023-05-14T21:59:48.047Z,13.13
2023-05-14T22:02:14.634Z,13.03
2023-05-14T22:04:41.265Z,12.97
2023-05-14T22:07:07.741Z,12.91
2023-05-14T22:09:34.100Z,12.86
2023-05-14T22:12:00.601Z,12.83
2023-05-14T22:14:27.248Z,12.81
2023-05-14T22:16:53.973Z,12.80
2023-05-14T22:19:20.553Z,12.78
2023-05-14T22:21:46.915Z,12.78
2023-05-14T22:24:13.305Z,12.76
2023-05-14T22:26:39.811Z,12.71
2023-05-14T22:29:06.179Z,12.72
2023-05-14T22:31:32.598Z,12.70
2023-05-14T22:33:59.061Z,12.69
2023-05-14T22:36:25.534Z,12.68
2023-05-14T22:38:52.005Z,12.64
2023-05-14T22:41:18.423Z,12.65
2023-05-14T22:43:44.908Z,12.63
2023-05-14T22:46:11.414Z,12.58
2023-05-14T22:48:37.763Z,12.58
2023-05-14T22:51:04.567Z,12.58
2023-05-14T22:53:30.994Z,12.54
2023-05-14T22:55:57.478Z,12.51
2023-05-14T22:58:23.910Z,12.48
2023-05-14T23:00:50.501Z,12.48
2023-05-14T23:03:16.921Z,12.47
2023-05-14T23:05:46.286Z,12.47
2023-05-14T23:08:12.673Z,12.47
2023-05-14T23:10:39.172Z,12.43
2023-05-14T23:13:05.567Z,12.44
2023-05-14T23:15:32.851Z,12.40
2023-05-14T23:17:59.717Z,12.40
2023-05-14T23:20:26.174Z,12.37
2023-05-14T23:22:53.996Z,12.37
2023-05-14T23:25:20.516Z,12.36
2023-05-14T23:27:47.890Z,12.36
2023-05-14T23:30:14.281Z,12.35
2023-05-14T23:32:40.670Z,12.35
2023-05-14T23:35:07.362Z,12.34
2023-05-14T23:37:33.903Z,12.33
2023-05-14T23:40:01.567Z,12.33
2023-05-14T23:42:27.968Z,12.29
2023-05-14T23:44:54.318Z,12.31
2023-05-14T23:47:20.801Z,12.30
2023-05-14T23:49:47.186Z,12.31
2023-05-14T23:52:13.556Z,12.29
2023-05-14T23:54:39.986Z,12.30
2023-05-14T23:57:06.409Z,12.25
2023-05-14T23:59:32.816Z,12.23
